sensor_id;sensor_type;location;lat;lon;timestamp;P1;durP1;ratioP1;P2;durP2;ratioP2
2305;SDS011;1161;51.922;8.896;2022-12-18T00:02:09;35.30;;;14.50;;
2305;SDS011;1161;51.922;8.896;2022-12-18T00:04:35;47.67;;;13.73;;
2305;SDS011;1161;51.922;8.896;2022-12-18T00:07:02;40.97;;;15.57;;
2305;SDS011;1161;51.922;8.896;2022-12-18T00:09:29;64.40;;;16.88;;
2305;SDS011;1161;51.922;8.896;2022-12-18T00:11:57;28.08;;;15.50;;
2305;SDS011;1161;51.922;8.896;2022-12-18T00:14:24;33.13;;;13.73;;
2305;SDS011;1161;51.922;8.896;2022-12-18T00:16:51;39.60;;;17.27;;
2305;SDS011;1161;51.922;8.896;2022-12-18T00:19:17;46.33;;;20.17;;
2305;SDS011;1161;51.922;8.896;2022-12-18T00:21:44;42.72;;;16.08;;
2305;SDS011;1161;51.922;8.896;2022-12-18T00:24:11;35.47;;;16.42;;
2305;SDS011;1161;51.922;8.896;2022-12-18T00:26:38;36.35;;;17.63;;
2305;SDS011;1161;51.922;8.896;2022-12-18T00:29:08;38.20;;;16.00;;
2305;SDS011;1161;51.922;8.896;2022-12-18T00:31:36;37.50;;;14.77;;
2305;SDS011;1161;51.922;8.896;2022-12-18T00:34:03;36.70;;;15.90;;
2305;SDS011;1161;51.922;8.896;2022-12-18T00:36:31;34.97;;;17.75;;
2305;SDS011;1161;51.922;8.896;2022-12-18T00:38:59;47.83;;;17.40;;
2305;SDS011;1161;51.922;8.896;2022-12-18T00:41:26;39.83;;;17.80;;
2305;SDS011;1161;51.922;8.896;2022-12-18T00:44:13;28.05;;;14.30;;
2305;SDS011;1161;51.922;8.896;2022-12-18T00:46:42;28.33;;;13.98;;
2305;SDS011;1161;51.922;8.896;2022-12-18T00:49:09;32.58;;;16.88;;
2305;SDS011;1161;51.922;8.896;2022-12-18T00:51:36;28.17;;;14.50;;
2305;SDS011;1161;51.922;8.896;2022-12-18T00:54:02;48.90;;;17.55;;
2305;SDS011;1161;51.922;8.896;2022-12-18T00:56:30;30.50;;;15.90;;
2305;SDS011;1161;51.922;8.896;2022-12-18T00:58:56;41.30;;;16.85;;
2305;SDS011;1161;51.922;8.896;2022-12-18T01:01:24;37.47;;;16.95;;
2305;SDS011;1161;51.922;8.896;2022-12-18T01:03:51;24.55;;;12.00;;
2305;SDS011;1161;51.922;8.896;2022-12-18T01:06:18;46.10;;;14.73;;
2305;SDS011;1161;51.922;8.896;2022-12-18T01:08:45;43.58;;;16.35;;
2305;SDS011;1161;51.922;8.896;2022-12-18T01:11:12;30.10;;;15.13;;
2305;SDS011;1161;51.922;8.896;2022-12-18T01:13:40;27.88;;;13.88;;
2305;SDS011;1161;51.922;8.896;2022-12-18T01:16:07;32.30;;;16.60;;
2305;SDS011;1161;51.922;8.896;2022-12-18T01:18:35;30.92;;;13.68;;
2305;SDS011;1161;51.922;8.896;2022-12-18T01:21:05;35.03;;;16.67;;
2305;SDS011;1161;51.922;8.896;2022-12-18T01:23:32;31.98;;;15.38;;
2305;SDS011;1161;51.922;8.896;2022-12-18T01:26:03;40.60;;;16.38;;
2305;SDS011;1161;51.922;8.896;2022-12-18T01:28:31;33.70;;;14.95;;
2305;SDS011;1161;51.922;8.896;2022-12-18T01:30:57;30.52;;;15.73;;
2305;SDS011;1161;51.922;8.896;2022-12-18T01:33:37;42.03;;;13.70;;
2305;SDS011;1161;51.922;8.896;2022-12-18T01:36:04;36.08;;;14.73;;
2305;SDS011;1161;51.922;8.896;2022-12-18T01:38:31;38.10;;;14.23;;
2305;SDS011;1161;51.922;8.896;2022-12-18T01:40:57;35.05;;;14.23;;
2305;SDS011;1161;51.922;8.896;2022-12-18T01:46:16;27.55;;;13.90;;
2305;SDS011;1161;51.922;8.896;2022-12-18T01:48:45;33.92;;;14.20;;
2305;SDS011;1161;51.922;8.896;2022-12-18T01:51:13;34.33;;;12.57;;
2305;SDS011;1161;51.922;8.896;2022-12-18T01:53:41;25.40;;;13.27;;
2305;SDS011;1161;51.922;8.896;2022-12-18T01:56:08;29.80;;;12.63;;
2305;SDS011;1161;51.922;8.896;2022-12-18T01:58:40;37.63;;;15.45;;
2305;SDS011;1161;51.922;8.896;2022-12-18T02:01:10;26.40;;;12.38;;
2305;SDS011;1161;51.922;8.896;2022-12-18T02:03:37;42.17;;;14.13;;
2305;SDS011;1161;51.922;8.896;2022-12-18T02:06:07;47.88;;;16.08;;
2305;SDS011;1161;51.922;8.896;2022-12-18T02:08:39;22.98;;;10.95;;
2305;SDS011;1161;51.922;8.896;2022-12-18T02:11:10;31.25;;;11.43;;
2305;SDS011;1161;51.922;8.896;2022-12-18T02:13:44;32.08;;;15.57;;
2305;SDS011;1161;51.922;8.896;2022-12-18T02:16:15;32.35;;;13.40;;
2305;SDS011;1161;51.922;8.896;2022-12-18T02:18:47;31.45;;;11.80;;
2305;SDS011;1161;51.922;8.896;2022-12-18T02:21:20;30.65;;;13.95;;
2305;SDS011;1161;51.922;8.896;2022-12-18T02:23:54;32.00;;;13.43;;
2305;SDS011;1161;51.922;8.896;2022-12-18T02:26:26;32.95;;;14.48;;
2305;SDS011;1161;51.922;8.896;2022-12-18T02:28:57;20.25;;;12.75;;
2305;SDS011;1161;51.922;8.896;2022-12-18T02:31:27;46.08;;;14.07;;
2305;SDS011;1161;51.922;8.896;2022-12-18T02:33:55;38.03;;;12.35;;
2305;SDS011;1161;51.922;8.896;2022-12-18T02:36:23;27.15;;;13.70;;
2305;SDS011;1161;51.922;8.896;2022-12-18T02:38:49;42.50;;;13.52;;
2305;SDS011;1161;51.922;8.896;2022-12-18T02:41:17;28.75;;;11.88;;
2305;SDS011;1161;51.922;8.896;2022-12-18T02:43:48;38.00;;;12.43;;
2305;SDS011;1161;51.922;8.896;2022-12-18T02:46:23;33.22;;;13.10;;
2305;SDS011;1161;51.922;8.896;2022-12-18T02:48:52;48.67;;;13.43;;
2305;SDS011;1161;51.922;8.896;2022-12-18T02:51:25;21.73;;;10.70;;
2305;SDS011;1161;51.922;8.896;2022-12-18T02:53:56;39.60;;;12.57;;
2305;SDS011;1161;51.922;8.896;2022-12-18T02:56:28;46.25;;;13.85;;
2305;SDS011;1161;51.922;8.896;2022-12-18T02:58:59;25.88;;;12.18;;
2305;SDS011;1161;51.922;8.896;2022-12-18T03:01:30;33.75;;;13.75;;
2305;SDS011;1161;51.922;8.896;2022-12-18T03:04:01;31.05;;;13.52;;
2305;SDS011;1161;51.922;8.896;2022-12-18T03:06:31;47.55;;;15.20;;
2305;SDS011;1161;51.922;8.896;2022-12-18T03:09:01;33.22;;;13.27;;
2305;SDS011;1161;51.922;8.896;2022-12-18T03:11:30;34.90;;;15.52;;
2305;SDS011;1161;51.922;8.896;2022-12-18T03:14:19;18.27;;;10.82;;
2305;SDS011;1161;51.922;8.896;2022-12-18T03:16:47;25.23;;;12.75;;
2305;SDS011;1161;51.922;8.896;2022-12-18T03:19:16;32.63;;;14.80;;
2305;SDS011;1161;51.922;8.896;2022-12-18T03:21:46;28.25;;;13.15;;
2305;SDS011;1161;51.922;8.896;2022-12-18T03:24:14;27.95;;;11.52;;
2305;SDS011;1161;51.922;8.896;2022-12-18T03:26:43;20.58;;;10.63;;
2305;SDS011;1161;51.922;8.896;2022-12-18T03:29:14;24.20;;;13.00;;
2305;SDS011;1161;51.922;8.896;2022-12-18T03:31:47;25.35;;;12.57;;
2305;SDS011;1161;51.922;8.896;2022-12-18T03:34:17;44.72;;;15.75;;
2305;SDS011;1161;51.922;8.896;2022-12-18T03:36:46;29.70;;;12.25;;
2305;SDS011;1161;51.922;8.896;2022-12-18T03:39:13;25.38;;;14.63;;
2305;SDS011;1161;51.922;8.896;2022-12-18T03:41:43;43.42;;;13.68;;
2305;SDS011;1161;51.922;8.896;2022-12-18T03:44:12;31.88;;;16.58;;
2305;SDS011;1161;51.922;8.896;2022-12-18T03:46:47;50.97;;;14.48;;
2305;SDS011;1161;51.922;8.896;2022-12-18T03:49:23;50.58;;;15.82;;
2305;SDS011;1161;51.922;8.896;2022-12-18T03:51:52;29.77;;;16.13;;
2305;SDS011;1161;51.922;8.896;2022-12-18T03:54:21;27.75;;;12.93;;
2305;SDS011;1161;51.922;8.896;2022-12-18T03:56:50;35.78;;;14.45;;
2305;SDS011;1161;51.922;8.896;2022-12-18T03:59:21;35.22;;;13.70;;
2305;SDS011;1161;51.922;8.896;2022-12-18T04:01:50;31.13;;;12.57;;
2305;SDS011;1161;51.922;8.896;2022-12-18T04:04:19;22.65;;;11.88;;
2305;SDS011;1161;51.922;8.896;2022-12-18T04:06:46;41.30;;;13.68;;
2305;SDS011;1161;51.922;8.896;2022-12-18T04:09:21;32.22;;;14.18;;
2305;SDS011;1161;51.922;8.896;2022-12-18T04:11:49;32.38;;;15.18;;
2305;SDS011;1161;51.922;8.896;2022-12-18T04:14:17;31.17;;;12.98;;
2305;SDS011;1161;51.922;8.896;2022-12-18T04:16:44;30.98;;;12.02;;
2305;SDS011;1161;51.922;8.896;2022-12-18T04:19:13;26.42;;;13.00;;
2305;SDS011;1161;51.922;8.896;2022-12-18T04:21:40;27.95;;;12.23;;
2305;SDS011;1161;51.922;8.896;2022-12-18T04:24:07;35.53;;;14.95;;
2305;SDS011;1161;51.922;8.896;2022-12-18T04:26:34;33.95;;;14.25;;
2305;SDS011;1161;51.922;8.896;2022-12-18T04:29:01;29.83;;;12.60;;
2305;SDS011;1161;51.922;8.896;2022-12-18T04:31:28;31.88;;;12.13;;
2305;SDS011;1161;51.922;8.896;2022-12-18T04:33:56;40.55;;;13.60;;
2305;SDS011;1161;51.922;8.896;2022-12-18T04:36:24;24.88;;;13.13;;
2305;SDS011;1161;51.922;8.896;2022-12-18T04:38:51;32.25;;;13.90;;
2305;SDS011;1161;51.922;8.896;2022-12-18T04:41:19;28.48;;;13.80;;
2305;SDS011;1161;51.922;8.896;2022-12-18T04:43:46;40.85;;;13.38;;
2305;SDS011;1161;51.922;8.896;2022-12-18T04:46:13;35.05;;;13.20;;
2305;SDS011;1161;51.922;8.896;2022-12-18T04:48:40;19.58;;;13.13;;
2305;SDS011;1161;51.922;8.896;2022-12-18T04:51:07;25.27;;;13.60;;
2305;SDS011;1161;51.922;8.896;2022-12-18T04:53:35;27.35;;;12.27;;
2305;SDS011;1161;51.922;8.896;2022-12-18T04:56:03;30.13;;;12.50;;
2305;SDS011;1161;51.922;8.896;2022-12-18T04:58:32;25.42;;;13.93;;
2305;SDS011;1161;51.922;8.896;2022-12-18T05:00:59;29.55;;;13.70;;
2305;SDS011;1161;51.922;8.896;2022-12-18T05:03:28;52.08;;;16.60;;
2305;SDS011;1161;51.922;8.896;2022-12-18T05:05:55;26.55;;;14.50;;
2305;SDS011;1161;51.922;8.896;2022-12-18T05:08:23;23.33;;;10.70;;
2305;SDS011;1161;51.922;8.896;2022-12-18T05:10:58;24.92;;;13.38;;
2305;SDS011;1161;51.922;8.896;2022-12-18T05:13:27;32.38;;;12.00;;
2305;SDS011;1161;51.922;8.896;2022-12-18T05:15:55;29.30;;;13.98;;
2305;SDS011;1161;51.922;8.896;2022-12-18T05:18:22;24.33;;;12.25;;
2305;SDS011;1161;51.922;8.896;2022-12-18T05:20:50;33.00;;;14.07;;
2305;SDS011;1161;51.922;8.896;2022-12-18T05:23:17;30.20;;;12.43;;
2305;SDS011;1161;51.922;8.896;2022-12-18T05:25:46;38.08;;;15.98;;
2305;SDS011;1161;51.922;8.896;2022-12-18T05:28:16;26.77;;;13.07;;
2305;SDS011;1161;51.922;8.896;2022-12-18T05:30:46;36.05;;;14.15;;
2305;SDS011;1161;51.922;8.896;2022-12-18T05:33:15;38.15;;;16.15;;
2305;SDS011;1161;51.922;8.896;2022-12-18T05:35:42;26.77;;;15.18;;
2305;SDS011;1161;51.922;8.896;2022-12-18T05:38:09;32.05;;;14.30;;
2305;SDS011;1161;51.922;8.896;2022-12-18T05:40:37;38.85;;;15.45;;
2305;SDS011;1161;51.922;8.896;2022-12-18T05:43:12;25.58;;;10.25;;
2305;SDS011;1161;51.922;8.896;2022-12-18T05:45:41;44.15;;;17.00;;
2305;SDS011;1161;51.922;8.896;2022-12-18T05:48:08;30.40;;;15.43;;
2305;SDS011;1161;51.922;8.896;2022-12-18T05:50:36;38.65;;;15.32;;
2305;SDS011;1161;51.922;8.896;2022-12-18T05:53:06;31.45;;;13.63;;
2305;SDS011;1161;51.922;8.896;2022-12-18T05:55:34;42.88;;;16.60;;
2305;SDS011;1161;51.922;8.896;2022-12-18T05:58:01;24.40;;;14.25;;
2305;SDS011;1161;51.922;8.896;2022-12-18T06:00:28;28.55;;;13.68;;
2305;SDS011;1161;51.922;8.896;2022-12-18T06:02:56;26.92;;;12.13;;
2305;SDS011;1161;51.922;8.896;2022-12-18T06:05:24;38.10;;;14.93;;
2305;SDS011;1161;51.922;8.896;2022-12-18T06:07:51;29.17;;;12.15;;
2305;SDS011;1161;51.922;8.896;2022-12-18T06:10:18;17.98;;;10.43;;
2305;SDS011;1161;51.922;8.896;2022-12-18T06:12:45;29.27;;;13.90;;
2305;SDS011;1161;51.922;8.896;2022-12-18T06:15:12;29.30;;;13.45;;
2305;SDS011;1161;51.922;8.896;2022-12-18T06:18:01;32.80;;;12.50;;
2305;SDS011;1161;51.922;8.896;2022-12-18T06:20:29;24.35;;;12.55;;
2305;SDS011;1161;51.922;8.896;2022-12-18T06:22:56;29.92;;;11.25;;
2305;SDS011;1161;51.922;8.896;2022-12-18T06:25:23;30.35;;;14.32;;
2305;SDS011;1161;51.922;8.896;2022-12-18T06:27:53;49.15;;;14.90;;
2305;SDS011;1161;51.922;8.896;2022-12-18T06:30:22;24.30;;;12.82;;
2305;SDS011;1161;51.922;8.896;2022-12-18T06:32:49;28.45;;;12.13;;
2305;SDS011;1161;51.922;8.896;2022-12-18T06:35:19;23.75;;;13.73;;
2305;SDS011;1161;51.922;8.896;2022-12-18T06:37:46;25.77;;;12.18;;
2305;SDS011;1161;51.922;8.896;2022-12-18T06:40:16;29.65;;;14.00;;
2305;SDS011;1161;51.922;8.896;2022-12-18T06:42:44;37.13;;;15.70;;
2305;SDS011;1161;51.922;8.896;2022-12-18T06:45:15;24.10;;;12.05;;
2305;SDS011;1161;51.922;8.896;2022-12-18T06:47:42;19.60;;;12.18;;
2305;SDS011;1161;51.922;8.896;2022-12-18T06:50:09;37.83;;;14.95;;
2305;SDS011;1161;51.922;8.896;2022-12-18T06:52:38;33.53;;;14.77;;
2305;SDS011;1161;51.922;8.896;2022-12-18T06:55:06;34.40;;;12.93;;
2305;SDS011;1161;51.922;8.896;2022-12-18T06:57:37;34.50;;;13.90;;
2305;SDS011;1161;51.922;8.896;2022-12-18T07:00:06;34.90;;;13.70;;
2305;SDS011;1161;51.922;8.896;2022-12-18T07:02:34;30.55;;;13.98;;
2305;SDS011;1161;51.922;8.896;2022-12-18T07:05:03;28.13;;;13.70;;
2305;SDS011;1161;51.922;8.896;2022-12-18T07:07:31;30.95;;;12.98;;
2305;SDS011;1161;51.922;8.896;2022-12-18T07:10:00;37.38;;;14.65;;
2305;SDS011;1161;51.922;8.896;2022-12-18T07:12:28;33.17;;;12.63;;
2305;SDS011;1161;51.922;8.896;2022-12-18T07:14:54;30.70;;;13.13;;
2305;SDS011;1161;51.922;8.896;2022-12-18T07:17:21;31.58;;;15.10;;
2305;SDS011;1161;51.922;8.896;2022-12-18T07:19:48;29.83;;;13.55;;
2305;SDS011;1161;51.922;8.896;2022-12-18T07:22:15;27.58;;;12.68;;
2305;SDS011;1161;51.922;8.896;2022-12-18T07:24:42;24.25;;;13.32;;
2305;SDS011;1161;51.922;8.896;2022-12-18T07:27:10;28.70;;;12.75;;
2305;SDS011;1161;51.922;8.896;2022-12-18T07:29:37;22.95;;;14.70;;
2305;SDS011;1161;51.922;8.896;2022-12-18T07:32:03;30.23;;;14.23;;
2305;SDS011;1161;51.922;8.896;2022-12-18T07:34:32;24.73;;;14.90;;
2305;SDS011;1161;51.922;8.896;2022-12-18T07:36:58;36.10;;;13.18;;
2305;SDS011;1161;51.922;8.896;2022-12-18T07:39:25;33.85;;;16.20;;
2305;SDS011;1161;51.922;8.896;2022-12-18T07:41:52;42.45;;;14.05;;
2305;SDS011;1161;51.922;8.896;2022-12-18T07:44:34;27.08;;;11.93;;
2305;SDS011;1161;51.922;8.896;2022-12-18T07:47:01;27.05;;;11.80;;
2305;SDS011;1161;51.922;8.896;2022-12-18T07:49:27;25.42;;;12.98;;
2305;SDS011;1161;51.922;8.896;2022-12-18T07:51:54;18.92;;;11.70;;
2305;SDS011;1161;51.922;8.896;2022-12-18T07:54:21;26.52;;;10.18;;
2305;SDS011;1161;51.922;8.896;2022-12-18T07:56:48;31.27;;;12.98;;
2305;SDS011;1161;51.922;8.896;2022-12-18T07:59:15;21.83;;;12.98;;
2305;SDS011;1161;51.922;8.896;2022-12-18T08:01:43;34.13;;;14.05;;
2305;SDS011;1161;51.922;8.896;2022-12-18T08:04:10;26.42;;;12.98;;
2305;SDS011;1161;51.922;8.896;2022-12-18T08:06:37;31.20;;;14.13;;
2305;SDS011;1161;51.922;8.896;2022-12-18T08:09:03;26.23;;;12.38;;
2305;SDS011;1161;51.922;8.896;2022-12-18T08:11:30;39.35;;;15.18;;
2305;SDS011;1161;51.922;8.896;2022-12-18T08:13:57;28.40;;;13.73;;
2305;SDS011;1161;51.922;8.896;2022-12-18T08:16:24;33.47;;;14.77;;
2305;SDS011;1161;51.922;8.896;2022-12-18T08:18:52;30.60;;;13.98;;
2305;SDS011;1161;51.922;8.896;2022-12-18T08:21:20;16.98;;;10.00;;
2305;SDS011;1161;51.922;8.896;2022-12-18T08:23:49;35.20;;;13.48;;
2305;SDS011;1161;51.922;8.896;2022-12-18T08:26:16;43.28;;;15.93;;
2305;SDS011;1161;51.922;8.896;2022-12-18T08:28:43;25.30;;;13.43;;
2305;SDS011;1161;51.922;8.896;2022-12-18T08:31:10;25.48;;;12.65;;
2305;SDS011;1161;51.922;8.896;2022-12-18T08:33:37;23.70;;;13.32;;
2305;SDS011;1161;51.922;8.896;2022-12-18T08:36:06;19.33;;;10.48;;
2305;SDS011;1161;51.922;8.896;2022-12-18T08:38:34;26.92;;;13.63;;
2305;SDS011;1161;51.922;8.896;2022-12-18T08:41:00;32.97;;;15.20;;
2305;SDS011;1161;51.922;8.896;2022-12-18T08:43:27;32.53;;;14.18;;
2305;SDS011;1161;51.922;8.896;2022-12-18T08:46:12;34.08;;;11.13;;
2305;SDS011;1161;51.922;8.896;2022-12-18T08:48:38;21.17;;;11.73;;
2305;SDS011;1161;51.922;8.896;2022-12-18T08:51:07;18.67;;;12.80;;
2305;SDS011;1161;51.922;8.896;2022-12-18T08:53:34;28.50;;;14.25;;
2305;SDS011;1161;51.922;8.896;2022-12-18T08:56:01;27.55;;;14.23;;
2305;SDS011;1161;51.922;8.896;2022-12-18T08:58:28;34.05;;;12.88;;
2305;SDS011;1161;51.922;8.896;2022-12-18T09:00:59;25.17;;;13.57;;
2305;SDS011;1161;51.922;8.896;2022-12-18T09:03:26;32.65;;;12.88;;
2305;SDS011;1161;51.922;8.896;2022-12-18T09:05:55;28.65;;;13.55;;
2305;SDS011;1161;51.922;8.896;2022-12-18T09:08:23;27.08;;;10.68;;
2305;SDS011;1161;51.922;8.896;2022-12-18T09:10:50;18.83;;;11.43;;
2305;SDS011;1161;51.922;8.896;2022-12-18T09:13:18;31.00;;;12.43;;
2305;SDS011;1161;51.922;8.896;2022-12-18T09:15:50;28.35;;;12.20;;
2305;SDS011;1161;51.922;8.896;2022-12-18T09:18:19;29.83;;;12.75;;
2305;SDS011;1161;51.922;8.896;2022-12-18T09:20:47;24.48;;;11.48;;
2305;SDS011;1161;51.922;8.896;2022-12-18T09:23:15;22.42;;;10.93;;
2305;SDS011;1161;51.922;8.896;2022-12-18T09:25:43;23.90;;;10.88;;
2305;SDS011;1161;51.922;8.896;2022-12-18T09:28:11;22.10;;;11.30;;
2305;SDS011;1161;51.922;8.896;2022-12-18T09:30:43;38.33;;;12.70;;
2305;SDS011;1161;51.922;8.896;2022-12-18T09:33:11;13.82;;;8.93;;
2305;SDS011;1161;51.922;8.896;2022-12-18T09:35:39;27.55;;;10.13;;
2305;SDS011;1161;51.922;8.896;2022-12-18T09:38:06;24.23;;;10.55;;
2305;SDS011;1161;51.922;8.896;2022-12-18T09:40:35;28.42;;;12.43;;
2305;SDS011;1161;51.922;8.896;2022-12-18T09:43:04;26.67;;;12.40;;
2305;SDS011;1161;51.922;8.896;2022-12-18T09:45:32;32.72;;;14.60;;
2305;SDS011;1161;51.922;8.896;2022-12-18T09:48:05;13.05;;;10.30;;
2305;SDS011;1161;51.922;8.896;2022-12-18T09:50:34;15.50;;;9.73;;
2305;SDS011;1161;51.922;8.896;2022-12-18T09:53:04;28.35;;;10.98;;
2305;SDS011;1161;51.922;8.896;2022-12-18T09:55:33;21.58;;;10.88;;
2305;SDS011;1161;51.922;8.896;2022-12-18T09:58:10;24.40;;;11.45;;
2305;SDS011;1161;51.922;8.896;2022-12-18T10:00:39;21.42;;;9.27;;
2305;SDS011;1161;51.922;8.896;2022-12-18T10:03:08;17.95;;;8.90;;
2305;SDS011;1161;51.922;8.896;2022-12-18T10:05:37;34.72;;;16.40;;
2305;SDS011;1161;51.922;8.896;2022-12-18T10:08:10;20.23;;;12.63;;
2305;SDS011;1161;51.922;8.896;2022-12-18T10:10:40;26.13;;;10.23;;
2305;SDS011;1161;51.922;8.896;2022-12-18T10:13:12;12.48;;;8.27;;
2305;SDS011;1161;51.922;8.896;2022-12-18T10:15:45;18.35;;;10.07;;
2305;SDS011;1161;51.922;8.896;2022-12-18T10:18:22;23.98;;;10.30;;
2305;SDS011;1161;51.922;8.896;2022-12-18T10:20:58;21.92;;;10.60;;
2305;SDS011;1161;51.922;8.896;2022-12-18T10:23:29;23.50;;;11.98;;
2305;SDS011;1161;51.922;8.896;2022-12-18T10:26:00;30.40;;;14.48;;
2305;SDS011;1161;51.922;8.896;2022-12-18T10:28:31;22.92;;;9.90;;
2305;SDS011;1161;51.922;8.896;2022-12-18T10:30:59;27.02;;;12.93;;
2305;SDS011;1161;51.922;8.896;2022-12-18T10:33:27;34.67;;;11.85;;
2305;SDS011;1161;51.922;8.896;2022-12-18T10:35:56;21.25;;;11.07;;
2305;SDS011;1161;51.922;8.896;2022-12-18T10:38:25;33.47;;;12.90;;
2305;SDS011;1161;51.922;8.896;2022-12-18T10:40:53;23.38;;;12.82;;
2305;SDS011;1161;51.922;8.896;2022-12-18T10:43:22;31.30;;;10.88;;
2305;SDS011;1161;51.922;8.896;2022-12-18T10:46:11;33.10;;;15.10;;
2305;SDS011;1161;51.922;8.896;2022-12-18T10:48:47;23.50;;;10.63;;
2305;SDS011;1161;51.922;8.896;2022-12-18T10:51:19;31.88;;;11.82;;
2305;SDS011;1161;51.922;8.896;2022-12-18T10:53:51;29.90;;;12.95;;
2305;SDS011;1161;51.922;8.896;2022-12-18T10:56:20;23.17;;;11.07;;
2305;SDS011;1161;51.922;8.896;2022-12-18T10:58:54;21.02;;;10.73;;
2305;SDS011;1161;51.922;8.896;2022-12-18T11:01:24;24.20;;;11.80;;
2305;SDS011;1161;51.922;8.896;2022-12-18T11:03:59;21.13;;;11.60;;
2305;SDS011;1161;51.922;8.896;2022-12-18T11:06:27;21.45;;;10.68;;
2305;SDS011;1161;51.922;8.896;2022-12-18T11:08:58;26.23;;;10.00;;
2305;SDS011;1161;51.922;8.896;2022-12-18T11:11:25;36.45;;;12.15;;
2305;SDS011;1161;51.922;8.896;2022-12-18T11:13:56;21.52;;;10.02;;
2305;SDS011;1161;51.922;8.896;2022-12-18T11:16:27;17.70;;;8.80;;
2305;SDS011;1161;51.922;8.896;2022-12-18T11:18:54;23.42;;;10.70;;
2305;SDS011;1161;51.922;8.896;2022-12-18T11:21:21;23.95;;;11.55;;
2305;SDS011;1161;51.922;8.896;2022-12-18T11:23:49;15.65;;;10.65;;
2305;SDS011;1161;51.922;8.896;2022-12-18T11:26:16;21.00;;;10.68;;
2305;SDS011;1161;51.922;8.896;2022-12-18T11:28:43;27.52;;;11.50;;
2305;SDS011;1161;51.922;8.896;2022-12-18T11:31:18;22.60;;;10.70;;
2305;SDS011;1161;51.922;8.896;2022-12-18T11:33:50;19.00;;;10.15;;
2305;SDS011;1161;51.922;8.896;2022-12-18T11:36:20;21.02;;;9.68;;
2305;SDS011;1161;51.922;8.896;2022-12-18T11:38:48;19.75;;;12.48;;
2305;SDS011;1161;51.922;8.896;2022-12-18T11:41:18;23.88;;;10.70;;
2305;SDS011;1161;51.922;8.896;2022-12-18T11:43:48;19.77;;;9.82;;
2305;SDS011;1161;51.922;8.896;2022-12-18T11:46:17;22.63;;;10.70;;
2305;SDS011;1161;51.922;8.896;2022-12-18T11:48:47;19.13;;;10.45;;
2305;SDS011;1161;51.922;8.896;2022-12-18T11:51:19;25.08;;;13.45;;
2305;SDS011;1161;51.922;8.896;2022-12-18T11:53:58;20.73;;;9.18;;
2305;SDS011;1161;51.922;8.896;2022-12-18T11:56:29;19.85;;;9.40;;
2305;SDS011;1161;51.922;8.896;2022-12-18T11:59:01;24.38;;;10.00;;
2305;SDS011;1161;51.922;8.896;2022-12-18T12:01:37;18.67;;;10.65;;
2305;SDS011;1161;51.922;8.896;2022-12-18T12:07:16;19.05;;;9.45;;
2305;SDS011;1161;51.922;8.896;2022-12-18T12:09:49;17.60;;;8.63;;
2305;SDS011;1161;51.922;8.896;2022-12-18T12:12:26;19.85;;;10.40;;
2305;SDS011;1161;51.922;8.896;2022-12-18T12:15:13;30.73;;;12.55;;
2305;SDS011;1161;51.922;8.896;2022-12-18T12:17:45;17.02;;;9.63;;
2305;SDS011;1161;51.922;8.896;2022-12-18T12:20:18;17.80;;;9.65;;
2305;SDS011;1161;51.922;8.896;2022-12-18T12:22:49;14.35;;;9.98;;
2305;SDS011;1161;51.922;8.896;2022-12-18T12:25:23;22.05;;;11.07;;
2305;SDS011;1161;51.922;8.896;2022-12-18T12:27:58;26.60;;;12.32;;
2305;SDS011;1161;51.922;8.896;2022-12-18T12:30:33;20.70;;;11.57;;
2305;SDS011;1161;51.922;8.896;2022-12-18T12:33:08;22.98;;;11.55;;
2305;SDS011;1161;51.922;8.896;2022-12-18T12:35:46;20.95;;;10.63;;
2305;SDS011;1161;51.922;8.896;2022-12-18T12:38:18;21.63;;;10.13;;
2305;SDS011;1161;51.922;8.896;2022-12-18T12:40:47;18.85;;;10.35;;
2305;SDS011;1161;51.922;8.896;2022-12-18T12:43:19;13.73;;;8.30;;
2305;SDS011;1161;51.922;8.896;2022-12-18T12:45:55;26.33;;;10.40;;
2305;SDS011;1161;51.922;8.896;2022-12-18T12:48:32;19.77;;;11.93;;
2305;SDS011;1161;51.922;8.896;2022-12-18T12:51:04;15.40;;;9.13;;
2305;SDS011;1161;51.922;8.896;2022-12-18T12:53:36;18.95;;;9.70;;
2305;SDS011;1161;51.922;8.896;2022-12-18T12:56:04;15.65;;;8.77;;
2305;SDS011;1161;51.922;8.896;2022-12-18T12:58:34;26.00;;;10.95;;
2305;SDS011;1161;51.922;8.896;2022-12-18T13:01:08;24.25;;;9.77;;
2305;SDS011;1161;51.922;8.896;2022-12-18T13:03:41;19.42;;;10.25;;
2305;SDS011;1161;51.922;8.896;2022-12-18T13:06:12;21.48;;;10.80;;
2305;SDS011;1161;51.922;8.896;2022-12-18T13:08:54;24.25;;;8.98;;
2305;SDS011;1161;51.922;8.896;2022-12-18T13:11:30;11.10;;;8.60;;
2305;SDS011;1161;51.922;8.896;2022-12-18T13:14:23;16.90;;;10.30;;
2305;SDS011;1161;51.922;8.896;2022-12-18T13:17:24;21.17;;;10.00;;
2305;SDS011;1161;51.922;8.896;2022-12-18T13:20:10;19.70;;;9.30;;
2305;SDS011;1161;51.922;8.896;2022-12-18T13:22:40;21.60;;;8.50;;
2305;SDS011;1161;51.922;8.896;2022-12-18T13:30:47;15.32;;;8.45;;
2305;SDS011;1161;51.922;8.896;2022-12-18T13:36:16;12.90;;;7.20;;
2305;SDS011;1161;51.922;8.896;2022-12-18T13:41:49;17.75;;;7.97;;
2305;SDS011;1161;51.922;8.896;2022-12-18T13:44:22;14.13;;;7.18;;
2305;SDS011;1161;51.922;8.896;2022-12-18T13:46:51;9.90;;;6.65;;
2305;SDS011;1161;51.922;8.896;2022-12-18T13:49:20;21.92;;;9.48;;
2305;SDS011;1161;51.922;8.896;2022-12-18T13:51:49;15.90;;;9.25;;
2305;SDS011;1161;51.922;8.896;2022-12-18T13:54:18;18.77;;;8.50;;
2305;SDS011;1161;51.922;8.896;2022-12-18T13:56:48;15.05;;;8.57;;
2305;SDS011;1161;51.922;8.896;2022-12-18T13:59:16;11.18;;;7.78;;
2305;SDS011;1161;51.922;8.896;2022-12-18T14:01:45;17.70;;;8.57;;
2305;SDS011;1161;51.922;8.896;2022-12-18T14:04:18;15.70;;;8.90;;
2305;SDS011;1161;51.922;8.896;2022-12-18T14:06:46;20.73;;;9.60;;
2305;SDS011;1161;51.922;8.896;2022-12-18T14:09:14;18.88;;;8.00;;
2305;SDS011;1161;51.922;8.896;2022-12-18T14:11:45;14.95;;;8.63;;
2305;SDS011;1161;51.922;8.896;2022-12-18T14:14:15;18.02;;;8.95;;
2305;SDS011;1161;51.922;8.896;2022-12-18T14:16:42;15.77;;;8.80;;
2305;SDS011;1161;51.922;8.896;2022-12-18T14:19:10;15.95;;;9.30;;
2305;SDS011;1161;51.922;8.896;2022-12-18T14:21:42;15.35;;;7.32;;
2305;SDS011;1161;51.922;8.896;2022-12-18T14:24:13;16.75;;;8.88;;
2305;SDS011;1161;51.922;8.896;2022-12-18T14:26:41;16.17;;;7.18;;
2305;SDS011;1161;51.922;8.896;2022-12-18T14:29:20;17.00;;;9.50;;
2305;SDS011;1161;51.922;8.896;2022-12-18T14:32:04;28.33;;;10.82;;
2305;SDS011;1161;51.922;8.896;2022-12-18T14:34:36;20.35;;;9.95;;
2305;SDS011;1161;51.922;8.896;2022-12-18T14:37:03;13.77;;;8.90;;
2305;SDS011;1161;51.922;8.896;2022-12-18T14:39:30;20.30;;;9.30;;
2305;SDS011;1161;51.922;8.896;2022-12-18T14:41:56;16.05;;;7.50;;
2305;SDS011;1161;51.922;8.896;2022-12-18T14:44:24;12.38;;;8.05;;
2305;SDS011;1161;51.922;8.896;2022-12-18T14:46:51;20.85;;;9.25;;
2305;SDS011;1161;51.922;8.896;2022-12-18T14:49:19;13.75;;;7.55;;
2305;SDS011;1161;51.922;8.896;2022-12-18T14:51:49;15.85;;;7.85;;
2305;SDS011;1161;51.922;8.896;2022-12-18T14:54:18;16.13;;;8.15;;
2305;SDS011;1161;51.922;8.896;2022-12-18T14:56:46;14.68;;;8.18;;
2305;SDS011;1161;51.922;8.896;2022-12-18T14:59:15;17.35;;;7.85;;
2305;SDS011;1161;51.922;8.896;2022-12-18T15:01:46;13.98;;;7.75;;
2305;SDS011;1161;51.922;8.896;2022-12-18T15:04:24;12.90;;;7.07;;
2305;SDS011;1161;51.922;8.896;2022-12-18T15:07:02;18.88;;;10.88;;
2305;SDS011;1161;51.922;8.896;2022-12-18T15:09:30;17.92;;;9.75;;
2305;SDS011;1161;51.922;8.896;2022-12-18T15:11:57;30.08;;;9.48;;
2305;SDS011;1161;51.922;8.896;2022-12-18T15:14:32;19.67;;;9.75;;
2305;SDS011;1161;51.922;8.896;2022-12-18T15:17:03;16.42;;;8.18;;
2305;SDS011;1161;51.922;8.896;2022-12-18T15:19:33;13.07;;;8.60;;
2305;SDS011;1161;51.922;8.896;2022-12-18T15:22:02;18.15;;;8.90;;
2305;SDS011;1161;51.922;8.896;2022-12-18T15:24:30;15.35;;;9.68;;